sensor_id;sensor_type;location;lat;lon;timestamp;temperature;humidity
2603;DHT22;1311;47.966;7.958;2023-12-29T00:01:38;10.00;99.90
2603;DHT22;1311;47.966;7.958;2023-12-29T00:04:05;10.00;99.90
2603;DHT22;1311;47.966;7.958;2023-12-29T00:06:32;10.00;99.90
2603;DHT22;1311;47.966;7.958;2023-12-29T00:08:59;10.00;99.90
2603;DHT22;1311;47.966;7.958;2023-12-29T00:11:26;10.00;99.90
2603;DHT22;1311;47.966;7.958;2023-12-29T00:13:54;10.10;99.90
2603;DHT22;1311;47.966;7.958;2023-12-29T00:16:21;10.20;99.90
2603;DHT22;1311;47.966;7.958;2023-12-29T00:18:47;10.10;99.90
2603;DHT22;1311;47.966;7.958;2023-12-29T00:21:14;10.20;99.90
2603;DHT22;1311;47.966;7.958;2023-12-29T00:23:41;10.20;99.90
2603;DHT22;1311;47.966;7.958;2023-12-29T00:26:08;10.20;99.90
2603;DHT22;1311;47.966;7.958;2023-12-29T00:28:34;10.30;99.90
2603;DHT22;1311;47.966;7.958;2023-12-29T00:31:07;10.30;99.90
2603;DHT22;1311;47.966;7.958;2023-12-29T00:33:33;10.20;99.90
2603;DHT22;1311;47.966;7.958;2023-12-29T00:36:00;10.20;99.90
2603;DHT22;1311;47.966;7.958;2023-12-29T00:38:27;10.20;99.90
2603;DHT22;1311;47.966;7.958;2023-12-29T00:40:54;10.30;99.90
2603;DHT22;1311;47.966;7.958;2023-12-29T00:43:21;10.30;99.90
2603;DHT22;1311;47.966;7.958;2023-12-29T00:45:48;10.30;99.90
2603;DHT22;1311;47.966;7.958;2023-12-29T00:48:16;10.30;99.90
2603;DHT22;1311;47.966;7.958;2023-12-29T00:50:43;10.30;99.90
2603;DHT22;1311;47.966;7.958;2023-12-29T00:53:09;10.30;99.90
2603;DHT22;1311;47.966;7.958;2023-12-29T00:55:36;10.20;99.90
2603;DHT22;1311;47.966;7.958;2023-12-29T00:58:03;10.10;99.90
2603;DHT22;1311;47.966;7.958;2023-12-29T01:00:30;10.10;99.90
2603;DHT22;1311;47.966;7.958;2023-12-29T01:02:56;10.10;99.90
2603;DHT22;1311;47.966;7.958;2023-12-29T01:05:25;10.10;99.90
2603;DHT22;1311;47.966;7.958;2023-12-29T01:07:53;10.10;99.90
2603;DHT22;1311;47.966;7.958;2023-12-29T01:10:19;10.10;99.90
2603;DHT22;1311;47.966;7.958;2023-12-29T01:12:46;10.10;99.90
2603;DHT22;1311;47.966;7.958;2023-12-29T01:15:13;10.10;99.90
2603;DHT22;1311;47.966;7.958;2023-12-29T01:17:40;10.00;99.90
2603;DHT22;1311;47.966;7.958;2023-12-29T01:20:07;10.00;99.90
2603;DHT22;1311;47.966;7.958;2023-12-29T01:22:35;9.90;99.90
2603;DHT22;1311;47.966;7.958;2023-12-29T01:25:03;9.80;99.90
2603;DHT22;1311;47.966;7.958;2023-12-29T01:27:29;9.80;99.90
2603;DHT22;1311;47.966;7.958;2023-12-29T01:29:56;9.70;99.90
2603;DHT22;1311;47.966;7.958;2023-12-29T01:32:23;9.60;99.90
2603;DHT22;1311;47.966;7.958;2023-12-29T01:34:51;9.50;99.90
2603;DHT22;1311;47.966;7.958;2023-12-29T01:37:18;9.40;99.90
2603;DHT22;1311;47.966;7.958;2023-12-29T01:39:46;9.40;99.90
2603;DHT22;1311;47.966;7.958;2023-12-29T01:42:13;9.30;99.90
2603;DHT22;1311;47.966;7.958;2023-12-29T01:44:40;9.20;99.90
2603;DHT22;1311;47.966;7.958;2023-12-29T01:47:13;9.20;99.90
2603;DHT22;1311;47.966;7.958;2023-12-29T01:49:41;9.10;99.90
2603;DHT22;1311;47.966;7.958;2023-12-29T01:52:09;9.10;99.90
2603;DHT22;1311;47.966;7.958;2023-12-29T01:54:37;9.10;99.90
2603;DHT22;1311;47.966;7.958;2023-12-29T01:57:07;9.00;99.90
2603;DHT22;1311;47.966;7.958;2023-12-29T01:59:35;9.00;99.90
2603;DHT22;1311;47.966;7.958;2023-12-29T02:02:03;9.00;99.90
2603;DHT22;1311;47.966;7.958;2023-12-29T02:04:30;9.00;99.90
2603;DHT22;1311;47.966;7.958;2023-12-29T02:06:57;9.00;99.90
2603;DHT22;1311;47.966;7.958;2023-12-29T02:09:24;9.00;99.90
2603;DHT22;1311;47.966;7.958;2023-12-29T02:11:51;9.00;99.90
2603;DHT22;1311;47.966;7.958;2023-12-29T02:14:19;9.00;99.90
2603;DHT22;1311;47.966;7.958;2023-12-29T02:16:54;9.00;99.90
2603;DHT22;1311;47.966;7.958;2023-12-29T02:19:36;8.90;99.90
2603;DHT22;1311;47.966;7.958;2023-12-29T02:22:04;8.90;99.90
2603;DHT22;1311;47.966;7.958;2023-12-29T02:24:33;9.00;99.90
2603;DHT22;1311;47.966;7.958;2023-12-29T02:27:11;9.00;99.90
2603;DHT22;1311;47.966;7.958;2023-12-29T02:29:40;9.00;99.90
2603;DHT22;1311;47.966;7.958;2023-12-29T02:32:14;9.00;99.90
2603;DHT22;1311;47.966;7.958;2023-12-29T02:34:43;9.00;99.90
2603;DHT22;1311;47.966;7.958;2023-12-29T02:37:12;9.00;99.90
2603;DHT22;1311;47.966;7.958;2023-12-29T02:39:39;9.10;99.90
2603;DHT22;1311;47.966;7.958;2023-12-29T02:42:07;9.10;99.90
2603;DHT22;1311;47.966;7.958;2023-12-29T02:44:34;9.10;99.90
2603;DHT22;1311;47.966;7.958;2023-12-29T02:47:01;9.10;99.90
2603;DHT22;1311;47.966;7.958;2023-12-29T02:49:29;9.10;99.90
2603;DHT22;1311;47.966;7.958;2023-12-29T02:51:56;9.10;99.90
2603;DHT22;1311;47.966;7.958;2023-12-29T02:54:23;9.20;99.90
2603;DHT22;1311;47.966;7.958;2023-12-29T02:56:49;9.20;99.90
2603;DHT22;1311;47.966;7.958;2023-12-29T02:59:17;9.20;99.90
2603;DHT22;1311;47.966;7.958;2023-12-29T03:01:44;9.30;99.90
2603;DHT22;1311;47.966;7.958;2023-12-29T03:04:12;9.30;99.90
2603;DHT22;1311;47.966;7.958;2023-12-29T03:06:40;9.30;99.90
2603;DHT22;1311;47.966;7.958;2023-12-29T03:09:07;9.30;99.90
2603;DHT22;1311;47.966;7.958;2023-12-29T03:11:33;9.30;99.90
2603;DHT22;1311;47.966;7.958;2023-12-29T03:14:00;9.40;99.90
2603;DHT22;1311;47.966;7.958;2023-12-29T03:16:28;9.40;99.90
2603;DHT22;1311;47.966;7.958;2023-12-29T03:18:55;9.40;99.90
2603;DHT22;1311;47.966;7.958;2023-12-29T03:21:22;9.40;99.90
2603;DHT22;1311;47.966;7.958;2023-12-29T03:23:48;9.40;99.90
2603;DHT22;1311;47.966;7.958;2023-12-29T03:26:15;9.50;99.90
2603;DHT22;1311;47.966;7.958;2023-12-29T03:28:42;9.50;99.90
2603;DHT22;1311;47.966;7.958;2023-12-29T03:31:08;9.50;99.90
2603;DHT22;1311;47.966;7.958;2023-12-29T03:33:37;9.50;99.90
2603;DHT22;1311;47.966;7.958;2023-12-29T03:36:04;9.50;99.90
2603;DHT22;1311;47.966;7.958;2023-12-29T03:38:31;9.50;99.90
2603;DHT22;1311;47.966;7.958;2023-12-29T03:40:58;9.50;99.90
2603;DHT22;1311;47.966;7.958;2023-12-29T03:43:25;9.60;99.90
2603;DHT22;1311;47.966;7.958;2023-12-29T03:45:52;9.60;99.90
2603;DHT22;1311;47.966;7.958;2023-12-29T03:48:19;9.60;99.90
2603;DHT22;1311;47.966;7.958;2023-12-29T03:50:47;9.60;99.90
2603;DHT22;1311;47.966;7.958;2023-12-29T03:53:13;9.60;99.90
2603;DHT22;1311;47.966;7.958;2023-12-29T03:55:40;9.60;99.90
2603;DHT22;1311;47.966;7.958;2023-12-29T03:58:07;9.50;99.90
2603;DHT22;1311;47.966;7.958;2023-12-29T04:00:34;9.60;99.90
2603;DHT22;1311;47.966;7.958;2023-12-29T04:03:01;9.60;99.90
2603;DHT22;1311;47.966;7.958;2023-12-29T04:05:28;9.60;99.90
2603;DHT22;1311;47.966;7.958;2023-12-29T04:07:56;9.60;99.90
2603;DHT22;1311;47.966;7.958;2023-12-29T04:10:22;9.60;99.90
2603;DHT22;1311;47.966;7.958;2023-12-29T04:12:49;9.70;99.90
2603;DHT22;1311;47.966;7.958;2023-12-29T04:15:16;9.60;99.90
2603;DHT22;1311;47.966;7.958;2023-12-29T04:17:42;9.60;99.90
2603;DHT22;1311;47.966;7.958;2023-12-29T04:20:10;9.60;99.90
2603;DHT22;1311;47.966;7.958;2023-12-29T04:22:36;9.70;99.90
2603;DHT22;1311;47.966;7.958;2023-12-29T04:25:05;9.70;99.90
2603;DHT22;1311;47.966;7.958;2023-12-29T04:27:32;9.80;99.90
2603;DHT22;1311;47.966;7.958;2023-12-29T04:29:59;9.70;99.90
2603;DHT22;1311;47.966;7.958;2023-12-29T04:32:26;9.80;99.90
2603;DHT22;1311;47.966;7.958;2023-12-29T04:34:52;9.80;99.90
2603;DHT22;1311;47.966;7.958;2023-12-29T04:37:19;9.80;99.90
2603;DHT22;1311;47.966;7.958;2023-12-29T04:39:46;9.80;99.90
2603;DHT22;1311;47.966;7.958;2023-12-29T04:42:14;9.80;99.90
2603;DHT22;1311;47.966;7.958;2023-12-29T04:44:42;9.80;99.90
2603;DHT22;1311;47.966;7.958;2023-12-29T04:47:09;9.90;99.90
2603;DHT22;1311;47.966;7.958;2023-12-29T04:49:35;9.80;99.90
2603;DHT22;1311;47.966;7.958;2023-12-29T04:52:03;9.80;99.90
2603;DHT22;1311;47.966;7.958;2023-12-29T04:54:30;9.80;99.90
2603;DHT22;1311;47.966;7.958;2023-12-29T04:56:56;9.80;99.90
2603;DHT22;1311;47.966;7.958;2023-12-29T04:59:24;9.80;99.90
2603;DHT22;1311;47.966;7.958;2023-12-29T05:01:51;9.70;99.90
2603;DHT22;1311;47.966;7.958;2023-12-29T05:04:18;9.70;99.90
2603;DHT22;1311;47.966;7.958;2023-12-29T05:06:44;9.80;99.90
2603;DHT22;1311;47.966;7.958;2023-12-29T05:09:11;9.80;99.90
2603;DHT22;1311;47.966;7.958;2023-12-29T05:11:38;9.70;99.90
2603;DHT22;1311;47.966;7.958;2023-12-29T05:14:05;9.70;99.90
2603;DHT22;1311;47.966;7.958;2023-12-29T05:16:33;9.60;99.90
2603;DHT22;1311;47.966;7.958;2023-12-29T05:19:00;9.50;99.90
2603;DHT22;1311;47.966;7.958;2023-12-29T05:21:26;9.60;99.90
2603;DHT22;1311;47.966;7.958;2023-12-29T05:23:53;9.60;99.90
2603;DHT22;1311;47.966;7.958;2023-12-29T05:26:20;9.70;99.90
2603;DHT22;1311;47.966;7.958;2023-12-29T05:28:46;9.70;99.90
2603;DHT22;1311;47.966;7.958;2023-12-29T05:31:13;9.70;99.90
2603;DHT22;1311;47.966;7.958;2023-12-29T05:33:42;9.80;99.90
2603;DHT22;1311;47.966;7.958;2023-12-29T05:36:10;9.80;99.90
2603;DHT22;1311;47.966;7.958;2023-12-29T05:38:37;9.80;99.90
2603;DHT22;1311;47.966;7.958;2023-12-29T05:41:05;9.80;99.90
2603;DHT22;1311;47.966;7.958;2023-12-29T05:43:32;9.80;99.90
2603;DHT22;1311;47.966;7.958;2023-12-29T05:46:00;9.80;99.90
2603;DHT22;1311;47.966;7.958;2023-12-29T05:48:27;9.80;99.90
2603;DHT22;1311;47.966;7.958;2023-12-29T05:50:55;9.80;99.90
2603;DHT22;1311;47.966;7.958;2023-12-29T05:53:22;9.80;99.90
2603;DHT22;1311;47.966;7.958;2023-12-29T05:55:48;9.80;99.90
2603;DHT22;1311;47.966;7.958;2023-12-29T05:58:15;9.90;99.90
2603;DHT22;1311;47.966;7.958;2023-12-29T06:00:42;9.90;99.90
2603;DHT22;1311;47.966;7.958;2023-12-29T06:03:10;9.90;99.90
2603;DHT22;1311;47.966;7.958;2023-12-29T06:05:36;9.90;99.90
2603;DHT22;1311;47.966;7.958;2023-12-29T06:08:05;9.90;99.90
2603;DHT22;1311;47.966;7.958;2023-12-29T06:10:32;9.90;99.90
2603;DHT22;1311;47.966;7.958;2023-12-29T06:13:01;9.90;99.90
2603;DHT22;1311;47.966;7.958;2023-12-29T06:15:28;9.90;99.90
2603;DHT22;1311;47.966;7.958;2023-12-29T06:17:55;9.90;99.90
2603;DHT22;1311;47.966;7.958;2023-12-29T06:20:21;9.90;99.90
2603;DHT22;1311;47.966;7.958;2023-12-29T06:22:48;9.90;99.90
2603;DHT22;1311;47.966;7.958;2023-12-29T06:25:16;9.90;99.90
2603;DHT22;1311;47.966;7.958;2023-12-29T06:27:43;10.00;99.90
2603;DHT22;1311;47.966;7.958;2023-12-29T06:30:10;9.90;99.90
2603;DHT22;1311;47.966;7.958;2023-12-29T06:32:37;9.90;99.90
2603;DHT22;1311;47.966;7.958;2023-12-29T06:35:06;9.90;99.90
2603;DHT22;1311;47.966;7.958;2023-12-29T06:37:32;9.90;99.90
2603;DHT22;1311;47.966;7.958;2023-12-29T06:39:59;9.90;99.90
2603;DHT22;1311;47.966;7.958;2023-12-29T06:42:27;9.90;99.90
2603;DHT22;1311;47.966;7.958;2023-12-29T06:44:54;9.90;99.90
2603;DHT22;1311;47.966;7.958;2023-12-29T06:47:21;9.90;99.90
2603;DHT22;1311;47.966;7.958;2023-12-29T06:49:48;9.90;99.90
2603;DHT22;1311;47.966;7.958;2023-12-29T06:52:15;9.90;99.90
2603;DHT22;1311;47.966;7.958;2023-12-29T06:54:42;9.90;99.90
2603;DHT22;1311;47.966;7.958;2023-12-29T06:57:08;9.90;99.90
2603;DHT22;1311;47.966;7.958;2023-12-29T06:59:36;9.80;99.90
2603;DHT22;1311;47.966;7.958;2023-12-29T07:02:03;9.80;99.90
2603;DHT22;1311;47.966;7.958;2023-12-29T07:04:30;9.80;99.90
2603;DHT22;1311;47.966;7.958;2023-12-29T07:06:57;9.80;99.90
2603;DHT22;1311;47.966;7.958;2023-12-29T07:09:25;9.80;99.90
2603;DHT22;1311;47.966;7.958;2023-12-29T07:11:52;9.80;99.90
2603;DHT22;1311;47.966;7.958;2023-12-29T07:14:18;9.80;99.90
2603;DHT22;1311;47.966;7.958;2023-12-29T07:16:46;9.80;99.90
2603;DHT22;1311;47.966;7.958;2023-12-29T07:19:13;9.80;99.90
2603;DHT22;1311;47.966;7.958;2023-12-29T07:21:40;9.70;99.90
2603;DHT22;1311;47.966;7.958;2023-12-29T07:24:07;9.70;99.90
2603;DHT22;1311;47.966;7.958;2023-12-29T07:26:35;9.70;99.90
2603;DHT22;1311;47.966;7.958;2023-12-29T07:29:01;9.70;99.90
2603;DHT22;1311;47.966;7.958;2023-12-29T07:31:28;9.60;99.90
2603;DHT22;1311;47.966;7.958;2023-12-29T07:33:56;9.60;99.90
2603;DHT22;1311;47.966;7.958;2023-12-29T07:36:23;9.70;99.90
2603;DHT22;1311;47.966;7.958;2023-12-29T07:38:50;9.60;99.90
2603;DHT22;1311;47.966;7.958;2023-12-29T07:41:16;9.70;99.90
2603;DHT22;1311;47.966;7.958;2023-12-29T07:43:44;9.60;99.90
2603;DHT22;1311;47.966;7.958;2023-12-29T07:46:10;9.60;99.90
2603;DHT22;1311;47.966;7.958;2023-12-29T07:48:37;9.50;99.90
2603;DHT22;1311;47.966;7.958;2023-12-29T07:51:06;9.60;99.90
2603;DHT22;1311;47.966;7.958;2023-12-29T07:53:33;9.70;99.90
2603;DHT22;1311;47.966;7.958;2023-12-29T07:56:00;9.80;99.90
2603;DHT22;1311;47.966;7.958;2023-12-29T07:58:26;9.80;99.90
2603;DHT22;1311;47.966;7.958;2023-12-29T08:00:54;9.90;99.90
2603;DHT22;1311;47.966;7.958;2023-12-29T08:03:20;9.90;99.90
2603;DHT22;1311;47.966;7.958;2023-12-29T08:05:47;9.90;99.90
2603;DHT22;1311;47.966;7.958;2023-12-29T08:08:15;10.00;99.90
2603;DHT22;1311;47.966;7.958;2023-12-29T08:10:42;10.00;99.90
2603;DHT22;1311;47.966;7.958;2023-12-29T08:13:09;10.10;99.90
2603;DHT22;1311;47.966;7.958;2023-12-29T08:15:36;10.20;99.90
2603;DHT22;1311;47.966;7.958;2023-12-29T08:18:03;10.20;99.90
2603;DHT22;1311;47.966;7.958;2023-12-29T08:20:29;10.20;99.90
2603;DHT22;1311;47.966;7.958;2023-12-29T08:22:56;10.30;99.90
2603;DHT22;1311;47.966;7.958;2023-12-29T08:25:24;10.30;99.90
2603;DHT22;1311;47.966;7.958;2023-12-29T08:27:51;10.30;99.90
2603;DHT22;1311;47.966;7.958;2023-12-29T08:30:18;10.40;99.90
2603;DHT22;1311;47.966;7.958;2023-12-29T08:32:45;10.40;99.90
2603;DHT22;1311;47.966;7.958;2023-12-29T08:35:11;10.40;99.90
2603;DHT22;1311;47.966;7.958;2023-12-29T08:37:38;10.50;99.90
2603;DHT22;1311;47.966;7.958;2023-12-29T08:40:06;10.50;99.90
2603;DHT22;1311;47.966;7.958;2023-12-29T08:42:34;10.50;99.90
2603;DHT22;1311;47.966;7.958;2023-12-29T08:45:02;10.50;99.90
2603;DHT22;1311;47.966;7.958;2023-12-29T08:47:29;10.60;99.90
2603;DHT22;1311;47.966;7.958;2023-12-29T08:49:56;10.60;99.90
2603;DHT22;1311;47.966;7.958;2023-12-29T08:52:23;10.70;99.90
2603;DHT22;1311;47.966;7.958;2023-12-29T08:54:49;10.70;99.90
2603;DHT22;1311;47.966;7.958;2023-12-29T08:57:16;10.70;99.90
2603;DHT22;1311;47.966;7.958;2023-12-29T08:59:44;10.80;99.90
2603;DHT22;1311;47.966;7.958;2023-12-29T09:02:11;10.80;99.90
2603;DHT22;1311;47.966;7.958;2023-12-29T09:04:38;10.80;99.90
2603;DHT22;1311;47.966;7.958;2023-12-29T09:07:06;10.80;99.90
2603;DHT22;1311;47.966;7.958;2023-12-29T09:09:32;10.90;99.90
2603;DHT22;1311;47.966;7.958;2023-12-29T09:11:59;11.00;99.90
2603;DHT22;1311;47.966;7.958;2023-12-29T09:14:27;11.00;99.90
2603;DHT22;1311;47.966;7.958;2023-12-29T09:16:57;11.00;99.90
2603;DHT22;1311;47.966;7.958;2023-12-29T09:19:24;11.00;99.90
2603;DHT22;1311;47.966;7.958;2023-12-29T09:21:51;11.00;99.90
2603;DHT22;1311;47.966;7.958;2023-12-29T09:24:18;11.00;99.90
2603;DHT22;1311;47.966;7.958;2023-12-29T09:26:44;11.00;99.90
2603;DHT22;1311;47.966;7.958;2023-12-29T09:29:11;11.10;99.90
2603;DHT22;1311;47.966;7.958;2023-12-29T09:31:38;11.20;99.90
2603;DHT22;1311;47.966;7.958;2023-12-29T09:34:06;11.30;99.90
2603;DHT22;1311;47.966;7.958;2023-12-29T09:36:33;11.30;99.90
2603;DHT22;1311;47.966;7.958;2023-12-29T09:38:59;11.30;99.90
2603;DHT22;1311;47.966;7.958;2023-12-29T09:41:28;11.50;99.90
2603;DHT22;1311;47.966;7.958;2023-12-29T09:43:58;11.30;99.90
2603;DHT22;1311;47.966;7.958;2023-12-29T09:46:28;11.40;99.90
2603;DHT22;1311;47.966;7.958;2023-12-29T09:48:57;11.40;99.90
2603;DHT22;1311;47.966;7.958;2023-12-29T09:51:27;11.40;99.90
2603;DHT22;1311;47.966;7.958;2023-12-29T09:53:53;11.30;99.90
2603;DHT22;1311;47.966;7.958;2023-12-29T09:56:20;11.20;99.90
2603;DHT22;1311;47.966;7.958;2023-12-29T09:58:48;11.20;99.90
2603;DHT22;1311;47.966;7.958;2023-12-29T10:01:17;11.30;99.90
2603;DHT22;1311;47.966;7.958;2023-12-29T10:03:44;11.40;99.90
2603;DHT22;1311;47.966;7.958;2023-12-29T10:06:13;11.30;99.90
2603;DHT22;1311;47.966;7.958;2023-12-29T10:08:46;11.30;99.90
2603;DHT22;1311;47.966;7.958;2023-12-29T10:11:15;11.50;99.90
2603;DHT22;1311;47.966;7.958;2023-12-29T10:13:45;11.60;99.90
2603;DHT22;1311;47.966;7.958;2023-12-29T10:16:21;11.60;99.90
2603;DHT22;1311;47.966;7.958;2023-12-29T10:19:00;11.70;99.90
2603;DHT22;1311;47.966;7.958;2023-12-29T10:21:37;11.80;99.90
2603;DHT22;1311;47.966;7.958;2023-12-29T10:24:12;11.90;99.90
2603;DHT22;1311;47.966;7.958;2023-12-29T10:26:42;12.00;99.90
2603;DHT22;1311;47.966;7.958;2023-12-29T10:29:10;12.10;99.90
2603;DHT22;1311;47.966;7.958;2023-12-29T10:31:38;12.20;99.90
2603;DHT22;1311;47.966;7.958;2023-12-29T10:34:17;12.30;99.90
2603;DHT22;1311;47.966;7.958;2023-12-29T10:36:48;12.30;99.90
2603;DHT22;1311;47.966;7.958;2023-12-29T10:39:16;12.20;99.90
2603;DHT22;1311;47.966;7.958;2023-12-29T10:41:43;12.20;99.90
2603;DHT22;1311;47.966;7.958;2023-12-29T10:44:10;12.10;99.90
2603;DHT22;1311;47.966;7.958;2023-12-29T10:46:37;12.10;99.90
2603;DHT22;1311;47.966;7.958;2023-12-29T10:49:07;12.10;99.90
2603;DHT22;1311;47.966;7.958;2023-12-29T10:51:34;12.20;99.90
2603;DHT22;1311;47.966;7.958;2023-12-29T10:54:03;12.20;99.90
2603;DHT22;1311;47.966;7.958;2023-12-29T10:56:31;12.10;99.90
2603;DHT22;1311;47.966;7.958;2023-12-29T10:58:59;12.00;99.90
2603;DHT22;1311;47.966;7.958;2023-12-29T11:01:28;12.00;99.90
2603;DHT22;1311;47.966;7.958;2023-12-29T11:03:59;11.90;99.90
2603;DHT22;1311;47.966;7.958;2023-12-29T11:06:27;11.90;99.90
2603;DHT22;1311;47.966;7.958;2023-12-29T11:08:55;12.00;99.90
2603;DHT22;1311;47.966;7.958;2023-12-29T11:11:22;11.80;99.90
2603;DHT22;1311;47.966;7.958;2023-12-29T11:13:51;11.70;99.90
2603;DHT22;1311;47.966;7.958;2023-12-29T11:16:20;11.80;99.90
2603;DHT22;1311;47.966;7.958;2023-12-29T11:18:49;11.80;99.90
2603;DHT22;1311;47.966;7.958;2023-12-29T11:21:18;11.90;99.90
2603;DHT22;1311;47.966;7.958;2023-12-29T11:23:47;11.90;99.90
2603;DHT22;1311;47.966;7.958;2023-12-29T11:26:14;11.80;99.90
2603;DHT22;1311;47.966;7.958;2023-12-29T11:28:42;11.80;99.90
2603;DHT22;1311;47.966;7.958;2023-12-29T11:31:11;11.80;99.90
2603;DHT22;1311;47.966;7.958;2023-12-29T11:33:40;11.80;99.90
2603;DHT22;1311;47.966;7.958;2023-12-29T11:36:13;11.80;99.90
2603;DHT22;1311;47.966;7.958;2023-12-29T11:38:50;11.90;99.90
2603;DHT22;1311;47.966;7.958;2023-12-29T11:41:23;12.10;99.90
2603;DHT22;1311;47.966;7.958;2023-12-29T11:44:01;12.10;99.90
2603;DHT22;1311;47.966;7.958;2023-12-29T11:46:36;12.20;99.90
2603;DHT22;1311;47.966;7.958;2023-12-29T11:49:04;12.10;99.90
2603;DHT22;1311;47.966;7.958;2023-12-29T11:51:32;12.20;99.90
2603;DHT22;1311;47.966;7.958;2023-12-29T11:54:00;12.10;99.90
2603;DHT22;1311;47.966;7.958;2023-12-29T11:56:44;11.80;99.90
2603;DHT22;1311;47.966;7.958;2023-12-29T11:59:16;11.80;99.90
2603;DHT22;1311;47.966;7.958;2023-12-29T12:01:46;11.70;99.90
2603;DHT22;1311;47.966;7.958;2023-12-29T12:04:35;11.70;99.90
2603;DHT22;1311;47.966;7.958;2023-12-29T12:07:04;12.10;99.90
2603;DHT22;1311;47.966;7.958;2023-12-29T12:09:32;12.30;99.90
2603;DHT22;1311;47.966;7.958;2023-12-29T12:12:00;12.40;99.90
2603;DHT22;1311;47.966;7.958;2023-12-29T12:14:51;12.50;99.90
2603;DHT22;1311;47.966;7.958;2023-12-29T12:17:30;12.20;99.90
2603;DHT22;1311;47.966;7.958;2023-12-29T12:19:57;12.00;99.90
2603;DHT22;1311;47.966;7.958;2023-12-29T12:22:25;12.10;99.90
2603;DHT22;1311;47.966;7.958;2023-12-29T12:24:56;12.20;99.90
2603;DHT22;1311;47.966;7.958;2023-12-29T12:27:24;12.20;99.90
2603;DHT22;1311;47.966;7.958;2023-12-29T12:29:53;12.10;99.90
2603;DHT22;1311;47.966;7.958;2023-12-29T12:32:22;12.00;99.90
2603;DHT22;1311;47.966;7.958;2023-12-29T12:34:50;11.80;99.90
2603;DHT22;1311;47.966;7.958;2023-12-29T12:37:21;12.00;99.90
2603;DHT22;1311;47.966;7.958;2023-12-29T12:39:48;12.20;99.90
2603;DHT22;1311;47.966;7.958;2023-12-29T12:42:16;12.30;99.90
2603;DHT22;1311;47.966;7.958;2023-12-29T12:44:48;12.50;99.90
2603;DHT22;1311;47.966;7.958;2023-12-29T12:47:25;12.30;99.90
2603;DHT22;1311;47.966;7.958;2023-12-29T12:49:54;12.40;99.90
2603;DHT22;1311;47.966;7.958;2023-12-29T12:52:22;12.20;99.90
2603;DHT22;1311;47.966;7.958;2023-12-29T12:54:49;12.10;99.90
2603;DHT22;1311;47.966;7.958;2023-12-29T12:57:20;12.10;99.90
2603;DHT22;1311;47.966;7.958;2023-12-29T12:59:48;12.00;99.90
2603;DHT22;1311;47.966;7.958;2023-12-29T13:02:15;12.00;99.90
2603;DHT22;1311;47.966;7.958;2023-12-29T13:04:42;11.80;99.90
2603;DHT22;1311;47.966;7.958;2023-12-29T13:07:10;11.70;99.90
2603;DHT22;1311;47.966;7.958;2023-12-29T13:09:41;11.80;99.90
2603;DHT22;1311;47.966;7.958;2023-12-29T13:12:09;11.70;99.90
2603;DHT22;1311;47.966;7.958;2023-12-29T13:14:36;11.70;99.90
2603;DHT22;1311;47.966;7.958;2023-12-29T13:17:07;11.70;99.90
2603;DHT22;1311;47.966;7.958;2023-12-29T13:19:34;11.80;99.90
2603;DHT22;1311;47.966;7.958;2023-12-29T13:22:00;11.80;99.90
2603;DHT22;1311;47.966;7.958;2023-12-29T13:24:30;11.70;99.90
2603;DHT22;1311;47.966;7.958;2023-12-29T13:27:02;11.70;99.90
2603;DHT22;1311;47.966;7.958;2023-12-29T13:29:30;11.60;99.90
2603;DHT22;1311;47.966;7.958;2023-12-29T13:32:00;11.60;99.90
2603;DHT22;1311;47.966;7.958;2023-12-29T13:34:33;11.50;99.90
2603;DHT22;1311;47.966;7.958;2023-12-29T13:37:04;11.40;99.90
2603;DHT22;1311;47.966;7.958;2023-12-29T13:39:37;11.40;99.90
2603;DHT22;1311;47.966;7.958;2023-12-29T13:42:08;11.30;99.90
2603;DHT22;1311;47.966;7.958;2023-12-29T13:44:37;11.30;99.90
2603;DHT22;1311;47.966;7.958;2023-12-29T13:47:05;11.30;99.90
2603;DHT22;1311;47.966;7.958;2023-12-29T13:49:32;11.30;99.90
2603;DHT22;1311;47.966;7.958;2023-12-29T13:52:02;11.30;99.90
2603;DHT22;1311;47.966;7.958;2023-12-29T13:54:29;11.30;99.90
2603;DHT22;1311;47.966;7.958;2023-12-29T13:56:57;11.20;99.90
2603;DHT22;1311;47.966;7.958;2023-12-29T13:59:37;11.10;99.90
2603;DHT22;1311;47.966;7.958;2023-12-29T14:02:20;11.20;99.90
2603;DHT22;1311;47.966;7.958;2023-12-29T14:05:05;11.20;99.90
2603;DHT22;1311;47.966;7.958;2023-12-29T14:07:36;11.20;99.90
2603;DHT22;1311;47.966;7.958;2023-12-29T14:10:03;11.20;99.90
2603;DHT22;1311;47.966;7.958;2023-12-29T14:12:31;11.20;99.90
2603;DHT22;1311;47.966;7.958;2023-12-29T14:15:03;11.20;99.90
2603;DHT22;1311;47.966;7.958;2023-12-29T14:17:30;11.10;99.90
2603;DHT22;1311;47.966;7.958;2023-12-29T14:19:58;11.10;99.90
2603;DHT22;1311;47.966;7.958;2023-12-29T14:22:31;11.10;99.90
2603;DHT22;1311;47.966;7.958;2023-12-29T14:25:05;11.10;99.90
2603;DHT22;1311;47.966;7.958;2023-12-29T14:27:34;11.10;99.90
2603;DHT22;1311;47.966;7.958;2023-12-29T14:30:01;11.10;99.90
2603;DHT22;1311;47.966;7.958;2023-12-29T14:32:28;11.00;99.90
2603;DHT22;1311;47.966;7.958;2023-12-29T14:34:55;11.10;99.90
2603;DHT22;1311;47.966;7.958;2023-12-29T14:37:22;11.00;99.90
2603;DHT22;1311;47.966;7.958;2023-12-29T14:39:51;11.00;99.90
2603;DHT22;1311;47.966;7.958;2023-12-29T14:42:18;11.00;99.90
2603;DHT22;1311;47.966;7.958;2023-12-29T14:44:47;11.00;99.90
2603;DHT22;1311;47.966;7.958;2023-12-29T14:47:14;11.00;99.90
2603;DHT22;1311;47.966;7.958;2023-12-29T14:49:41;11.00;99.90
2603;DHT22;1311;47.966;7.958;2023-12-29T14:52:08;10.90;99.90
2603;DHT22;1311;47.966;7.958;2023-12-29T14:54:35;10.90;99.90
2603;DHT22;1311;47.966;7.958;2023-12-29T14:57:01;10.90;99.90
2603;DHT22;1311;47.966;7.958;2023-12-29T14:59:28;10.90;99.90
2603;DHT22;1311;47.966;7.958;2023-12-29T15:01:57;10.90;99.90
2603;DHT22;1311;47.966;7.958;2023-12-29T15:04:24;10.90;99.90
2603;DHT22;1311;47.966;7.958;2023-12-29T15:06:51;10.90;99.90
2603;DHT22;1311;47.966;7.958;2023-12-29T15:09:17;10.90;99.90
2603;DHT22;1311;47.966;7.958;2023-12-29T15:11:45;10.90;99.90
2603;DHT22;1311;47.966;7.958;2023-12-29T15:14:12;10.90;99.90
2603;DHT22;1311;47.966;7.958;2023-12-29T15:16:39;10.80;99.90
2603;DHT22;1311;47.966;7.958;2023-12-29T15:19:07;10.80;99.90
2603;DHT22;1311;47.966;7.958;2023-12-29T15:21:34;10.80;99.90
2603;DHT22;1311;47.966;7.958;2023-12-29T15:24:01;10.80;99.90
2603;DHT22;1311;47.966;7.958;2023-12-29T15:26:28;10.80;99.90
2603;DHT22;1311;47.966;7.958;2023-12-29T15:28:54;10.80;99.90
2603;DHT22;1311;47.966;7.958;2023-12-29T15:31:22;10.80;99.90
2603;DHT22;1311;47.966;7.958;2023-12-29T15:33:49;10.80;99.90
2603;DHT22;1311;47.966;7.958;2023-12-29T15:36:17;10.70;99.90
2603;DHT22;1311;47.966;7.958;2023-12-29T15:38:46;10.70;99.90
2603;DHT22;1311;47.966;7.958;2023-12-29T15:41:13;10.70;99.90
2603;DHT22;1311;47.966;7.958;2023-12-29T15:43:39;10.70;99.90
2603;DHT22;1311;47.966;7.958;2023-12-29T15:46:12;10.70;99.90
2603;DHT22;1311;47.966;7.958;2023-12-29T15:48:39;10.70;99.90
2603;DHT22;1311;47.966;7.958;2023-12-29T15:51:06;10.70;99.90
2603;DHT22;1311;47.966;7.958;2023-12-29T15:53:35;10.70;99.90
2603;DHT22;1311;47.966;7.958;2023-12-29T15:56:03;10.70;99.90
2603;DHT22;1311;47.966;7.958;2023-12-29T15:58:30;10.60;99.90
2603;DHT22;1311;47.966;7.958;2023-12-29T16:00:57;10.70;99.90
2603;DHT22;1311;47.966;7.958;2023-12-29T16:03:24;10.70;99.90
2603;DHT22;1311;47.966;7.958;2023-12-29T16:05:50;10.70;99.90
2603;DHT22;1311;47.966;7.958;2023-12-29T16:08:17;10.70;99.90
2603;DHT22;1311;47.966;7.958;2023-12-29T16:10:45;10.60;99.90
2603;DHT22;1311;47.966;7.958;2023-12-29T16:13:12;10.60;99.90